sensor_id;sensor_type;location;lat;lon;timestamp;P1;durP1;ratioP1;P2;durP2;ratioP2
54197;SDS011;40105;52.366;17.000;2022-08-19T00:01:38;14.30;;;9.15;;
54197;SDS011;40105;52.366;17.000;2022-08-19T00:04:08;16.08;;;9.55;;
54197;SDS011;40105;52.366;17.000;2022-08-19T00:06:34;20.77;;;9.73;;
54197;SDS011;40105;52.366;17.000;2022-08-19T00:09:00;15.00;;;9.15;;
54197;SDS011;40105;52.366;17.000;2022-08-19T00:11:25;22.27;;;9.43;;
54197;SDS011;40105;52.366;17.000;2022-08-19T00:13:52;20.42;;;9.40;;
54197;SDS011;40105;52.366;17.000;2022-08-19T00:16:18;16.75;;;9.70;;
54197;SDS011;40105;52.366;17.000;2022-08-19T00:18:45;11.93;;;8.93;;
54197;SDS011;40105;52.366;17.000;2022-08-19T00:21:11;17.63;;;9.43;;
54197;SDS011;40105;52.366;17.000;2022-08-19T00:23:36;22.07;;;9.07;;
54197;SDS011;40105;52.366;17.000;2022-08-19T00:26:05;19.67;;;10.25;;
54197;SDS011;40105;52.366;17.000;2022-08-19T00:28:30;16.08;;;9.35;;
54197;SDS011;40105;52.366;17.000;2022-08-19T00:30:56;14.70;;;7.70;;
54197;SDS011;40105;52.366;17.000;2022-08-19T00:33:21;14.37;;;9.20;;
54197;SDS011;40105;52.366;17.000;2022-08-19T00:35:46;16.73;;;8.37;;
54197;SDS011;40105;52.366;17.000;2022-08-19T00:38:12;14.98;;;9.45;;
54197;SDS011;40105;52.366;17.000;2022-08-19T00:40:37;16.70;;;9.17;;
54197;SDS011;40105;52.366;17.000;2022-08-19T00:43:07;24.83;;;8.43;;
54197;SDS011;40105;52.366;17.000;2022-08-19T00:45:32;13.95;;;9.63;;
54197;SDS011;40105;52.366;17.000;2022-08-19T00:47:58;17.25;;;9.85;;
54197;SDS011;40105;52.366;17.000;2022-08-19T00:50:28;17.60;;;8.30;;
54197;SDS011;40105;52.366;17.000;2022-08-19T00:52:54;13.93;;;8.35;;
54197;SDS011;40105;52.366;17.000;2022-08-19T00:55:21;17.08;;;8.80;;
54197;SDS011;40105;52.366;17.000;2022-08-19T00:57:51;14.35;;;8.30;;
54197;SDS011;40105;52.366;17.000;2022-08-19T01:00:17;16.10;;;8.77;;
54197;SDS011;40105;52.366;17.000;2022-08-19T01:02:43;14.35;;;7.82;;
54197;SDS011;40105;52.366;17.000;2022-08-19T01:05:13;12.02;;;8.80;;
54197;SDS011;40105;52.366;17.000;2022-08-19T01:10:06;12.63;;;7.97;;
54197;SDS011;40105;52.366;17.000;2022-08-19T01:12:31;12.48;;;8.10;;
54197;SDS011;40105;52.366;17.000;2022-08-19T01:14:57;14.32;;;8.00;;
54197;SDS011;40105;52.366;17.000;2022-08-19T01:17:23;15.13;;;8.27;;
54197;SDS011;40105;52.366;17.000;2022-08-19T01:19:49;13.60;;;8.50;;
54197;SDS011;40105;52.366;17.000;2022-08-19T01:24:48;19.23;;;8.10;;
54197;SDS011;40105;52.366;17.000;2022-08-19T01:27:14;16.50;;;8.07;;
54197;SDS011;40105;52.366;17.000;2022-08-19T01:29:40;15.23;;;8.43;;
54197;SDS011;40105;52.366;17.000;2022-08-19T01:32:06;16.52;;;8.35;;
54197;SDS011;40105;52.366;17.000;2022-08-19T01:34:32;12.65;;;8.02;;
54197;SDS011;40105;52.366;17.000;2022-08-19T01:36:58;13.60;;;8.10;;
54197;SDS011;40105;52.366;17.000;2022-08-19T01:39:24;13.77;;;7.83;;
54197;SDS011;40105;52.366;17.000;2022-08-19T01:41:49;19.92;;;8.38;;
54197;SDS011;40105;52.366;17.000;2022-08-19T01:44:15;15.60;;;7.85;;
54197;SDS011;40105;52.366;17.000;2022-08-19T01:46:41;12.63;;;8.38;;
54197;SDS011;40105;52.366;17.000;2022-08-19T01:49:06;14.90;;;7.72;;
54197;SDS011;40105;52.366;17.000;2022-08-19T01:51:32;16.83;;;8.48;;
54197;SDS011;40105;52.366;17.000;2022-08-19T01:53:58;19.67;;;8.20;;
54197;SDS011;40105;52.366;17.000;2022-08-19T01:56:23;11.30;;;8.40;;
54197;SDS011;40105;52.366;17.000;2022-08-19T01:58:49;11.15;;;7.38;;
54197;SDS011;40105;52.366;17.000;2022-08-19T02:01:16;18.90;;;7.63;;
54197;SDS011;40105;52.366;17.000;2022-08-19T02:03:41;14.23;;;8.68;;
54197;SDS011;40105;52.366;17.000;2022-08-19T02:06:06;21.10;;;8.87;;
54197;SDS011;40105;52.366;17.000;2022-08-19T02:08:33;19.80;;;8.63;;
54197;SDS011;40105;52.366;17.000;2022-08-19T02:10:59;12.02;;;7.95;;
54197;SDS011;40105;52.366;17.000;2022-08-19T02:13:25;11.47;;;8.20;;
54197;SDS011;40105;52.366;17.000;2022-08-19T02:15:51;19.75;;;7.78;;
54197;SDS011;40105;52.366;17.000;2022-08-19T02:18:16;14.30;;;8.40;;
54197;SDS011;40105;52.366;17.000;2022-08-19T02:20:41;12.47;;;7.63;;
54197;SDS011;40105;52.366;17.000;2022-08-19T02:23:07;15.55;;;8.10;;
54197;SDS011;40105;52.366;17.000;2022-08-19T02:25:32;16.88;;;8.25;;
54197;SDS011;40105;52.366;17.000;2022-08-19T02:27:57;13.20;;;8.00;;
54197;SDS011;40105;52.366;17.000;2022-08-19T02:30:22;13.50;;;7.97;;
54197;SDS011;40105;52.366;17.000;2022-08-19T02:32:49;12.05;;;7.88;;
54197;SDS011;40105;52.366;17.000;2022-08-19T02:35:14;11.20;;;7.63;;
54197;SDS011;40105;52.366;17.000;2022-08-19T02:37:41;13.98;;;7.75;;
54197;SDS011;40105;52.366;17.000;2022-08-19T02:40:25;12.57;;;7.80;;
54197;SDS011;40105;52.366;17.000;2022-08-19T02:42:50;12.40;;;7.80;;
54197;SDS011;40105;52.366;17.000;2022-08-19T02:45:15;17.57;;;8.37;;
54197;SDS011;40105;52.366;17.000;2022-08-19T02:47:40;11.33;;;7.90;;
54197;SDS011;40105;52.366;17.000;2022-08-19T02:50:06;11.35;;;7.97;;
54197;SDS011;40105;52.366;17.000;2022-08-19T02:52:32;11.20;;;7.57;;
54197;SDS011;40105;52.366;17.000;2022-08-19T02:54:58;10.18;;;7.18;;
54197;SDS011;40105;52.366;17.000;2022-08-19T02:57:23;12.40;;;7.97;;
54197;SDS011;40105;52.366;17.000;2022-08-19T02:59:48;12.77;;;8.18;;
54197;SDS011;40105;52.366;17.000;2022-08-19T03:02:14;10.50;;;7.53;;
54197;SDS011;40105;52.366;17.000;2022-08-19T03:04:40;22.80;;;7.72;;
54197;SDS011;40105;52.366;17.000;2022-08-19T03:07:06;10.95;;;7.57;;
54197;SDS011;40105;52.366;17.000;2022-08-19T03:09:31;10.73;;;7.83;;
54197;SDS011;40105;52.366;17.000;2022-08-19T03:11:56;16.90;;;7.70;;
54197;SDS011;40105;52.366;17.000;2022-08-19T03:14:21;11.60;;;7.50;;
54197;SDS011;40105;52.366;17.000;2022-08-19T03:16:48;12.05;;;8.35;;
54197;SDS011;40105;52.366;17.000;2022-08-19T03:19:16;13.27;;;7.90;;
54197;SDS011;40105;52.366;17.000;2022-08-19T03:21:42;12.98;;;7.65;;
54197;SDS011;40105;52.366;17.000;2022-08-19T03:24:09;11.65;;;8.07;;
54197;SDS011;40105;52.366;17.000;2022-08-19T03:26:38;15.55;;;8.25;;
54197;SDS011;40105;52.366;17.000;2022-08-19T03:29:03;10.93;;;7.20;;
54197;SDS011;40105;52.366;17.000;2022-08-19T03:31:29;17.45;;;9.00;;
54197;SDS011;40105;52.366;17.000;2022-08-19T03:33:56;12.85;;;7.40;;
54197;SDS011;40105;52.366;17.000;2022-08-19T03:36:23;15.37;;;7.93;;
54197;SDS011;40105;52.366;17.000;2022-08-19T03:38:49;13.13;;;8.32;;
54197;SDS011;40105;52.366;17.000;2022-08-19T03:41:16;16.17;;;8.23;;
54197;SDS011;40105;52.366;17.000;2022-08-19T03:43:41;16.85;;;8.98;;
54197;SDS011;40105;52.366;17.000;2022-08-19T03:46:08;13.73;;;8.50;;
54197;SDS011;40105;52.366;17.000;2022-08-19T03:48:34;16.95;;;8.65;;
54197;SDS011;40105;52.366;17.000;2022-08-19T03:51:00;16.10;;;7.65;;
54197;SDS011;40105;52.366;17.000;2022-08-19T03:53:27;15.75;;;7.97;;
54197;SDS011;40105;52.366;17.000;2022-08-19T03:55:53;16.20;;;8.65;;
54197;SDS011;40105;52.366;17.000;2022-08-19T03:58:18;13.57;;;8.57;;
54197;SDS011;40105;52.366;17.000;2022-08-19T04:00:43;15.27;;;9.13;;
54197;SDS011;40105;52.366;17.000;2022-08-19T04:03:09;14.13;;;8.97;;
54197;SDS011;40105;52.366;17.000;2022-08-19T04:05:34;10.90;;;8.10;;
54197;SDS011;40105;52.366;17.000;2022-08-19T04:07:59;15.23;;;8.80;;
54197;SDS011;40105;52.366;17.000;2022-08-19T04:10:25;20.20;;;8.52;;
54197;SDS011;40105;52.366;17.000;2022-08-19T04:12:50;11.97;;;8.53;;
54197;SDS011;40105;52.366;17.000;2022-08-19T04:15:15;15.27;;;7.73;;
54197;SDS011;40105;52.366;17.000;2022-08-19T04:17:41;20.95;;;9.43;;
54197;SDS011;40105;52.366;17.000;2022-08-19T04:20:06;14.00;;;8.87;;
54197;SDS011;40105;52.366;17.000;2022-08-19T04:22:31;11.70;;;7.95;;
54197;SDS011;40105;52.366;17.000;2022-08-19T04:24:57;18.60;;;10.02;;
54197;SDS011;40105;52.366;17.000;2022-08-19T04:27:22;16.73;;;9.50;;
54197;SDS011;40105;52.366;17.000;2022-08-19T04:29:47;13.77;;;8.17;;
54197;SDS011;40105;52.366;17.000;2022-08-19T04:32:13;16.83;;;9.43;;
54197;SDS011;40105;52.366;17.000;2022-08-19T04:34:40;14.93;;;8.60;;
54197;SDS011;40105;52.366;17.000;2022-08-19T04:37:05;13.70;;;8.18;;
54197;SDS011;40105;52.366;17.000;2022-08-19T04:39:36;14.73;;;8.43;;
54197;SDS011;40105;52.366;17.000;2022-08-19T04:42:20;26.65;;;8.90;;
54197;SDS011;40105;52.366;17.000;2022-08-19T04:45:08;13.07;;;8.38;;
54197;SDS011;40105;52.366;17.000;2022-08-19T04:47:37;12.45;;;8.57;;
54197;SDS011;40105;52.366;17.000;2022-08-19T04:50:02;12.88;;;8.93;;
54197;SDS011;40105;52.366;17.000;2022-08-19T04:52:28;20.65;;;8.90;;
54197;SDS011;40105;52.366;17.000;2022-08-19T04:54:53;14.73;;;9.03;;
54197;SDS011;40105;52.366;17.000;2022-08-19T04:57:20;12.63;;;9.02;;
54197;SDS011;40105;52.366;17.000;2022-08-19T04:59:45;19.67;;;9.18;;
54197;SDS011;40105;52.366;17.000;2022-08-19T05:02:10;24.87;;;9.07;;
54197;SDS011;40105;52.366;17.000;2022-08-19T05:04:36;15.20;;;8.18;;
54197;SDS011;40105;52.366;17.000;2022-08-19T05:07:04;22.80;;;8.90;;
54197;SDS011;40105;52.366;17.000;2022-08-19T05:09:29;15.95;;;9.05;;
54197;SDS011;40105;52.366;17.000;2022-08-19T05:11:55;16.20;;;9.27;;
54197;SDS011;40105;52.366;17.000;2022-08-19T05:14:20;12.43;;;8.37;;
54197;SDS011;40105;52.366;17.000;2022-08-19T05:16:45;18.27;;;10.73;;
54197;SDS011;40105;52.366;17.000;2022-08-19T05:19:11;23.30;;;9.90;;
54197;SDS011;40105;52.366;17.000;2022-08-19T05:21:55;16.67;;;8.93;;
54197;SDS011;40105;52.366;17.000;2022-08-19T05:24:39;26.88;;;9.75;;
54197;SDS011;40105;52.366;17.000;2022-08-19T05:27:04;12.85;;;8.23;;
54197;SDS011;40105;52.366;17.000;2022-08-19T05:29:30;18.27;;;8.45;;
54197;SDS011;40105;52.366;17.000;2022-08-19T05:31:56;16.20;;;8.38;;
54197;SDS011;40105;52.366;17.000;2022-08-19T05:34:22;17.75;;;8.77;;
54197;SDS011;40105;52.366;17.000;2022-08-19T05:36:49;12.90;;;8.40;;
54197;SDS011;40105;52.366;17.000;2022-08-19T05:39:16;24.38;;;8.85;;
54197;SDS011;40105;52.366;17.000;2022-08-19T05:41:42;19.95;;;8.35;;
54197;SDS011;40105;52.366;17.000;2022-08-19T05:44:07;14.02;;;8.68;;
54197;SDS011;40105;52.366;17.000;2022-08-19T05:46:34;19.65;;;7.43;;
54197;SDS011;40105;52.366;17.000;2022-08-19T05:49:00;13.07;;;8.18;;
54197;SDS011;40105;52.366;17.000;2022-08-19T05:51:25;13.07;;;7.93;;
54197;SDS011;40105;52.366;17.000;2022-08-19T05:53:51;12.90;;;8.13;;
54197;SDS011;40105;52.366;17.000;2022-08-19T05:56:17;12.55;;;8.45;;
54197;SDS011;40105;52.366;17.000;2022-08-19T05:58:43;17.77;;;8.20;;
54197;SDS011;40105;52.366;17.000;2022-08-19T06:01:10;16.42;;;7.60;;
54197;SDS011;40105;52.366;17.000;2022-08-19T06:03:36;13.68;;;8.15;;
54197;SDS011;40105;52.366;17.000;2022-08-19T06:06:02;14.38;;;7.97;;
54197;SDS011;40105;52.366;17.000;2022-08-19T06:08:28;16.42;;;8.27;;
54197;SDS011;40105;52.366;17.000;2022-08-19T06:10:53;14.27;;;8.00;;
54197;SDS011;40105;52.366;17.000;2022-08-19T06:13:18;16.17;;;7.87;;
54197;SDS011;40105;52.366;17.000;2022-08-19T06:15:44;19.40;;;8.00;;
54197;SDS011;40105;52.366;17.000;2022-08-19T06:18:10;15.55;;;7.68;;
54197;SDS011;40105;52.366;17.000;2022-08-19T06:20:35;20.77;;;7.57;;
54197;SDS011;40105;52.366;17.000;2022-08-19T06:23:00;17.23;;;7.90;;
54197;SDS011;40105;52.366;17.000;2022-08-19T06:25:26;14.67;;;9.00;;
54197;SDS011;40105;52.366;17.000;2022-08-19T06:27:51;21.93;;;8.70;;
54197;SDS011;40105;52.366;17.000;2022-08-19T06:30:16;17.03;;;8.67;;
54197;SDS011;40105;52.366;17.000;2022-08-19T06:32:41;11.70;;;8.13;;
54197;SDS011;40105;52.366;17.000;2022-08-19T06:35:07;12.00;;;7.97;;
54197;SDS011;40105;52.366;17.000;2022-08-19T06:37:32;14.00;;;8.52;;
54197;SDS011;40105;52.366;17.000;2022-08-19T06:39:57;15.70;;;7.30;;
54197;SDS011;40105;52.366;17.000;2022-08-19T06:42:23;15.27;;;7.33;;
54197;SDS011;40105;52.366;17.000;2022-08-19T06:44:48;12.53;;;7.93;;
54197;SDS011;40105;52.366;17.000;2022-08-19T06:47:15;19.17;;;8.20;;
54197;SDS011;40105;52.366;17.000;2022-08-19T06:49:41;12.50;;;7.47;;
54197;SDS011;40105;52.366;17.000;2022-08-19T06:52:06;12.40;;;7.32;;
54197;SDS011;40105;52.366;17.000;2022-08-19T06:54:31;16.97;;;8.00;;
54197;SDS011;40105;52.366;17.000;2022-08-19T06:57:00;14.50;;;8.23;;
54197;SDS011;40105;52.366;17.000;2022-08-19T06:59:29;15.15;;;7.97;;
54197;SDS011;40105;52.366;17.000;2022-08-19T07:01:57;17.05;;;7.47;;
54197;SDS011;40105;52.366;17.000;2022-08-19T07:04:25;18.30;;;8.23;;
54197;SDS011;40105;52.366;17.000;2022-08-19T07:06:55;14.80;;;7.68;;
54197;SDS011;40105;52.366;17.000;2022-08-19T07:09:21;21.35;;;8.00;;
54197;SDS011;40105;52.366;17.000;2022-08-19T07:11:48;15.70;;;7.60;;
54197;SDS011;40105;52.366;17.000;2022-08-19T07:14:14;18.15;;;8.07;;
54197;SDS011;40105;52.366;17.000;2022-08-19T07:16:40;22.55;;;9.43;;
54197;SDS011;40105;52.366;17.000;2022-08-19T07:19:05;14.20;;;8.20;;
54197;SDS011;40105;52.366;17.000;2022-08-19T07:21:30;12.33;;;8.80;;
54197;SDS011;40105;52.366;17.000;2022-08-19T07:23:56;10.70;;;7.40;;
54197;SDS011;40105;52.366;17.000;2022-08-19T07:26:25;16.05;;;9.20;;
54197;SDS011;40105;52.366;17.000;2022-08-19T07:28:50;13.88;;;8.40;;
54197;SDS011;40105;52.366;17.000;2022-08-19T07:31:17;14.52;;;8.43;;
54197;SDS011;40105;52.366;17.000;2022-08-19T07:33:45;17.15;;;8.07;;
54197;SDS011;40105;52.366;17.000;2022-08-19T07:36:11;17.48;;;8.35;;
54197;SDS011;40105;52.366;17.000;2022-08-19T07:38:38;13.75;;;7.97;;
54197;SDS011;40105;52.366;17.000;2022-08-19T07:41:04;15.40;;;8.32;;
54197;SDS011;40105;52.366;17.000;2022-08-19T07:43:29;16.90;;;9.03;;
54197;SDS011;40105;52.366;17.000;2022-08-19T07:45:54;14.90;;;8.20;;
54197;SDS011;40105;52.366;17.000;2022-08-19T07:48:23;22.20;;;8.68;;
54197;SDS011;40105;52.366;17.000;2022-08-19T07:50:50;17.52;;;8.32;;
54197;SDS011;40105;52.366;17.000;2022-08-19T07:53:15;20.50;;;8.25;;
54197;SDS011;40105;52.366;17.000;2022-08-19T07:55:41;11.63;;;8.23;;
54197;SDS011;40105;52.366;17.000;2022-08-19T07:58:06;14.50;;;8.13;;
54197;SDS011;40105;52.366;17.000;2022-08-19T08:00:31;15.33;;;8.13;;
54197;SDS011;40105;52.366;17.000;2022-08-19T08:02:56;14.82;;;8.68;;
54197;SDS011;40105;52.366;17.000;2022-08-19T08:05:25;20.70;;;8.20;;
54197;SDS011;40105;52.366;17.000;2022-08-19T08:08:08;14.15;;;8.27;;
54197;SDS011;40105;52.366;17.000;2022-08-19T08:11:06;19.33;;;7.95;;
54197;SDS011;40105;52.366;17.000;2022-08-19T08:13:31;18.77;;;8.87;;
54197;SDS011;40105;52.366;17.000;2022-08-19T08:15:58;11.82;;;7.70;;
54197;SDS011;40105;52.366;17.000;2022-08-19T08:18:23;14.90;;;8.65;;
54197;SDS011;40105;52.366;17.000;2022-08-19T08:20:49;13.02;;;8.05;;
54197;SDS011;40105;52.366;17.000;2022-08-19T08:23:14;25.50;;;8.77;;
54197;SDS011;40105;52.366;17.000;2022-08-19T08:25:49;29.50;;;8.20;;
54197;SDS011;40105;52.366;17.000;2022-08-19T08:28:15;17.88;;;8.07;;
54197;SDS011;40105;52.366;17.000;2022-08-19T08:30:40;17.42;;;8.52;;
54197;SDS011;40105;52.366;17.000;2022-08-19T08:33:08;16.23;;;8.77;;
54197;SDS011;40105;52.366;17.000;2022-08-19T08:35:33;15.65;;;8.50;;
54197;SDS011;40105;52.366;17.000;2022-08-19T08:37:58;14.40;;;8.37;;
54197;SDS011;40105;52.366;17.000;2022-08-19T08:45:25;12.20;;;8.60;;
54197;SDS011;40105;52.366;17.000;2022-08-19T08:47:51;14.38;;;8.70;;
54197;SDS011;40105;52.366;17.000;2022-08-19T08:50:25;13.77;;;8.65;;
54197;SDS011;40105;52.366;17.000;2022-08-19T08:52:53;11.95;;;8.77;;
54197;SDS011;40105;52.366;17.000;2022-08-19T08:55:22;16.33;;;9.00;;
54197;SDS011;40105;52.366;17.000;2022-08-19T09:00:15;15.05;;;9.68;;
54197;SDS011;40105;52.366;17.000;2022-08-19T09:02:42;14.52;;;8.98;;
54197;SDS011;40105;52.366;17.000;2022-08-19T09:05:08;20.80;;;9.25;;
54197;SDS011;40105;52.366;17.000;2022-08-19T09:10:06;17.40;;;9.40;;
54197;SDS011;40105;52.366;17.000;2022-08-19T09:12:38;15.13;;;9.48;;
54197;SDS011;40105;52.366;17.000;2022-08-19T09:15:11;13.00;;;8.50;;
54197;SDS011;40105;52.366;17.000;2022-08-19T09:17:37;15.75;;;7.75;;
54197;SDS011;40105;52.366;17.000;2022-08-19T09:22:33;24.63;;;9.75;;
54197;SDS011;40105;52.366;17.000;2022-08-19T09:24:59;15.75;;;9.43;;
54197;SDS011;40105;52.366;17.000;2022-08-19T09:27:28;12.73;;;8.10;;
54197;SDS011;40105;52.366;17.000;2022-08-19T09:29:54;13.88;;;9.48;;
54197;SDS011;40105;52.366;17.000;2022-08-19T09:32:19;11.87;;;8.33;;
54197;SDS011;40105;52.366;17.000;2022-08-19T09:34:45;25.80;;;8.45;;
54197;SDS011;40105;52.366;17.000;2022-08-19T09:37:10;14.70;;;8.30;;
54197;SDS011;40105;52.366;17.000;2022-08-19T09:39:35;12.67;;;8.33;;
54197;SDS011;40105;52.366;17.000;2022-08-19T09:42:00;12.37;;;8.43;;
54197;SDS011;40105;52.366;17.000;2022-08-19T09:44:28;16.45;;;8.35;;
54197;SDS011;40105;52.366;17.000;2022-08-19T09:46:53;12.30;;;7.47;;
54197;SDS011;40105;52.366;17.000;2022-08-19T09:49:19;22.17;;;8.33;;
54197;SDS011;40105;52.366;17.000;2022-08-19T09:51:48;11.30;;;7.50;;
54197;SDS011;40105;52.366;17.000;2022-08-19T09:54:14;15.00;;;8.65;;
54197;SDS011;40105;52.366;17.000;2022-08-19T09:56:39;13.53;;;7.23;;
54197;SDS011;40105;52.366;17.000;2022-08-19T09:59:04;10.70;;;7.17;;
54197;SDS011;40105;52.366;17.000;2022-08-19T10:01:30;16.80;;;6.83;;
54197;SDS011;40105;52.366;17.000;2022-08-19T10:03:56;26.52;;;7.32;;
54197;SDS011;40105;52.366;17.000;2022-08-19T10:06:23;9.80;;;6.88;;
54197;SDS011;40105;52.366;17.000;2022-08-19T10:08:48;22.40;;;7.60;;
54197;SDS011;40105;52.366;17.000;2022-08-19T10:11:14;14.37;;;7.10;;
54197;SDS011;40105;52.366;17.000;2022-08-19T10:13:41;11.45;;;6.90;;
54197;SDS011;40105;52.366;17.000;2022-08-19T10:16:12;17.23;;;7.57;;
54197;SDS011;40105;52.366;17.000;2022-08-19T10:18:37;13.18;;;7.35;;
54197;SDS011;40105;52.366;17.000;2022-08-19T10:21:13;15.53;;;7.23;;
54197;SDS011;40105;52.366;17.000;2022-08-19T10:23:40;13.77;;;7.82;;
54197;SDS011;40105;52.366;17.000;2022-08-19T10:26:08;13.80;;;6.88;;
54197;SDS011;40105;52.366;17.000;2022-08-19T10:28:34;16.60;;;6.03;;
54197;SDS011;40105;52.366;17.000;2022-08-19T10:31:05;10.45;;;5.82;;
54197;SDS011;40105;52.366;17.000;2022-08-19T10:33:31;10.98;;;6.38;;
54197;SDS011;40105;52.366;17.000;2022-08-19T10:36:00;16.55;;;6.78;;
54197;SDS011;40105;52.366;17.000;2022-08-19T10:38:26;8.87;;;5.80;;
54197;SDS011;40105;52.366;17.000;2022-08-19T10:40:51;17.83;;;6.00;;
54197;SDS011;40105;52.366;17.000;2022-08-19T10:43:17;11.82;;;6.32;;
54197;SDS011;40105;52.366;17.000;2022-08-19T10:45:42;16.15;;;6.00;;
54197;SDS011;40105;52.366;17.000;2022-08-19T10:48:08;12.97;;;7.53;;
54197;SDS011;40105;52.366;17.000;2022-08-19T10:50:33;12.87;;;6.30;;
54197;SDS011;40105;52.366;17.000;2022-08-19T10:53:17;15.63;;;6.82;;
54197;SDS011;40105;52.366;17.000;2022-08-19T10:55:44;8.98;;;5.85;;
54197;SDS011;40105;52.366;17.000;2022-08-19T10:58:28;14.70;;;6.15;;
54197;SDS011;40105;52.366;17.000;2022-08-19T11:00:54;10.70;;;5.20;;
54197;SDS011;40105;52.366;17.000;2022-08-19T11:03:19;9.95;;;5.32;;
54197;SDS011;40105;52.366;17.000;2022-08-19T11:05:45;11.07;;;5.63;;
54197;SDS011;40105;52.366;17.000;2022-08-19T11:08:10;10.10;;;5.23;;
54197;SDS011;40105;52.366;17.000;2022-08-19T11:10:36;9.82;;;5.28;;
54197;SDS011;40105;52.366;17.000;2022-08-19T11:13:02;11.27;;;5.20;;
54197;SDS011;40105;52.366;17.000;2022-08-19T11:15:28;12.43;;;5.78;;
54197;SDS011;40105;52.366;17.000;2022-08-19T11:17:53;7.78;;;4.35;;
54197;SDS011;40105;52.366;17.000;2022-08-19T11:20:19;8.18;;;4.93;;
54197;SDS011;40105;52.366;17.000;2022-08-19T11:22:44;10.60;;;5.07;;
54197;SDS011;40105;52.366;17.000;2022-08-19T11:25:10;13.30;;;4.60;;
54197;SDS011;40105;52.366;17.000;2022-08-19T11:27:41;12.48;;;5.47;;
54197;SDS011;40105;52.366;17.000;2022-08-19T11:30:12;8.02;;;4.75;;
54197;SDS011;40105;52.366;17.000;2022-08-19T11:32:37;9.70;;;4.97;;
54197;SDS011;40105;52.366;17.000;2022-08-19T11:35:03;15.73;;;5.13;;
54197;SDS011;40105;52.366;17.000;2022-08-19T11:37:28;11.23;;;5.03;;
54197;SDS011;40105;52.366;17.000;2022-08-19T11:39:53;9.57;;;5.30;;
54197;SDS011;40105;52.366;17.000;2022-08-19T11:42:19;7.50;;;5.07;;
54197;SDS011;40105;52.366;17.000;2022-08-19T11:45:03;7.38;;;4.55;;
54197;SDS011;40105;52.366;17.000;2022-08-19T11:47:29;8.00;;;4.35;;
54197;SDS011;40105;52.366;17.000;2022-08-19T11:49:55;12.45;;;4.50;;
54197;SDS011;40105;52.366;17.000;2022-08-19T11:52:20;11.33;;;5.13;;
54197;SDS011;40105;52.366;17.000;2022-08-19T11:54:45;11.80;;;4.80;;
54197;SDS011;40105;52.366;17.000;2022-08-19T11:57:11;11.20;;;4.80;;
54197;SDS011;40105;52.366;17.000;2022-08-19T11:59:36;10.87;;;4.67;;
54197;SDS011;40105;52.366;17.000;2022-08-19T12:02:01;8.87;;;4.77;;
54197;SDS011;40105;52.366;17.000;2022-08-19T12:04:26;9.93;;;4.80;;
54197;SDS011;40105;52.366;17.000;2022-08-19T12:06:51;7.80;;;5.40;;
54197;SDS011;40105;52.366;17.000;2022-08-19T12:09:17;10.30;;;5.40;;
54197;SDS011;40105;52.366;17.000;2022-08-19T12:11:42;7.53;;;4.70;;
54197;SDS011;40105;52.366;17.000;2022-08-19T12:14:11;12.88;;;4.90;;
54197;SDS011;40105;52.366;17.000;2022-08-19T12:16:38;10.80;;;5.20;;
54197;SDS011;40105;52.366;17.000;2022-08-19T12:19:04;7.72;;;4.53;;
54197;SDS011;40105;52.366;17.000;2022-08-19T12:21:30;7.15;;;4.60;;
54197;SDS011;40105;52.366;17.000;2022-08-19T12:23:56;11.02;;;4.97;;
54197;SDS011;40105;52.366;17.000;2022-08-19T12:26:22;10.07;;;4.95;;
54197;SDS011;40105;52.366;17.000;2022-08-19T12:28:48;9.60;;;4.95;;
54197;SDS011;40105;52.366;17.000;2022-08-19T12:31:13;15.47;;;5.07;;
54197;SDS011;40105;52.366;17.000;2022-08-19T12:33:39;10.18;;;4.75;;
54197;SDS011;40105;52.366;17.000;2022-08-19T12:36:06;15.55;;;5.07;;
54197;SDS011;40105;52.366;17.000;2022-08-19T12:38:32;8.60;;;5.22;;
54197;SDS011;40105;52.366;17.000;2022-08-19T12:40:57;10.35;;;5.00;;
54197;SDS011;40105;52.366;17.000;2022-08-19T12:43:23;11.48;;;5.22;;
54197;SDS011;40105;52.366;17.000;2022-08-19T12:45:48;16.00;;;5.10;;
54197;SDS011;40105;52.366;17.000;2022-08-19T12:48:13;11.77;;;5.70;;
54197;SDS011;40105;52.366;17.000;2022-08-19T12:50:39;11.57;;;4.85;;
54197;SDS011;40105;52.366;17.000;2022-08-19T12:53:05;14.43;;;6.72;;
54197;SDS011;40105;52.366;17.000;2022-08-19T12:55:30;14.80;;;6.60;;
54197;SDS011;40105;52.366;17.000;2022-08-19T12:57:55;16.10;;;7.07;;
54197;SDS011;40105;52.366;17.000;2022-08-19T13:00:21;21.73;;;6.78;;
54197;SDS011;40105;52.366;17.000;2022-08-19T13:02:48;20.90;;;7.35;;
54197;SDS011;40105;52.366;17.000;2022-08-19T13:05:16;30.92;;;6.93;;
54197;SDS011;40105;52.366;17.000;2022-08-19T13:07:44;12.10;;;7.05;;
54197;SDS011;40105;52.366;17.000;2022-08-19T13:10:10;12.30;;;6.73;;
54197;SDS011;40105;52.366;17.000;2022-08-19T13:12:36;20.33;;;7.55;;
54197;SDS011;40105;52.366;17.000;2022-08-19T13:15:02;15.45;;;7.18;;
54197;SDS011;40105;52.366;17.000;2022-08-19T13:17:27;13.27;;;6.72;;
54197;SDS011;40105;52.366;17.000;2022-08-19T13:19:52;16.63;;;7.43;;
54197;SDS011;40105;52.366;17.000;2022-08-19T13:22:18;10.70;;;6.67;;
54197;SDS011;40105;52.366;17.000;2022-08-19T13:24:43;11.97;;;7.30;;
54197;SDS011;40105;52.366;17.000;2022-08-19T13:27:08;21.57;;;8.10;;
54197;SDS011;40105;52.366;17.000;2022-08-19T13:29:33;13.90;;;7.53;;
54197;SDS011;40105;52.366;17.000;2022-08-19T13:32:17;13.82;;;7.95;;
54197;SDS011;40105;52.366;17.000;2022-08-19T13:35:02;15.07;;;7.28;;
54197;SDS011;40105;52.366;17.000;2022-08-19T13:37:27;19.17;;;8.80;;
54197;SDS011;40105;52.366;17.000;2022-08-19T13:40:17;15.05;;;7.80;;
54197;SDS011;40105;52.366;17.000;2022-08-19T13:42:44;10.93;;;7.57;;
54197;SDS011;40105;52.366;17.000;2022-08-19T13:45:12;16.77;;;7.80;;
54197;SDS011;40105;52.366;17.000;2022-08-19T13:47:38;15.13;;;7.75;;
54197;SDS011;40105;52.366;17.000;2022-08-19T13:50:07;10.98;;;7.07;;
54197;SDS011;40105;52.366;17.000;2022-08-19T13:52:33;20.38;;;7.45;;
54197;SDS011;40105;52.366;17.000;2022-08-19T13:54:58;14.17;;;8.13;;
54197;SDS011;40105;52.366;17.000;2022-08-19T13:57:23;16.80;;;7.00;;
54197;SDS011;40105;52.366;17.000;2022-08-19T13:59:48;21.10;;;7.50;;
54197;SDS011;40105;52.366;17.000;2022-08-19T14:02:13;12.20;;;8.10;;
54197;SDS011;40105;52.366;17.000;2022-08-19T14:04:39;19.40;;;7.33;;
54197;SDS011;40105;52.366;17.000;2022-08-19T14:07:04;13.57;;;7.93;;
54197;SDS011;40105;52.366;17.000;2022-08-19T14:09:29;18.10;;;8.97;;
54197;SDS011;40105;52.366;17.000;2022-08-19T14:11:55;17.33;;;9.13;;
54197;SDS011;40105;52.366;17.000;2022-08-19T14:14:20;13.52;;;8.18;;
54197;SDS011;40105;52.366;17.000;2022-08-19T14:16:46;16.25;;;8.65;;
54197;SDS011;40105;52.366;17.000;2022-08-19T14:19:11;12.07;;;9.00;;
54197;SDS011;40105;52.366;17.000;2022-08-19T14:21:36;16.07;;;10.53;;
54197;SDS011;40105;52.366;17.000;2022-08-19T14:24:01;21.10;;;9.93;;
54197;SDS011;40105;52.366;17.000;2022-08-19T14:26:27;17.93;;;9.73;;
54197;SDS011;40105;52.366;17.000;2022-08-19T14:28:52;13.57;;;9.43;;
54197;SDS011;40105;52.366;17.000;2022-08-19T14:31:18;17.45;;;8.70;;
54197;SDS011;40105;52.366;17.000;2022-08-19T14:33:44;33.25;;;9.35;;
54197;SDS011;40105;52.366;17.000;2022-08-19T14:36:09;15.38;;;8.70;;